createdAt,value
2018-12-11T00:02:10.203Z,68.36
2018-12-11T00:04:38.249Z,66.91
2018-12-11T00:07:06.370Z,65.69
2018-12-11T00:09:34.432Z,68.85
2018-12-11T00:12:02.552Z,68.73
2018-12-11T00:14:30.684Z,68.74
2018-12-11T00:16:58.734Z,70.01
2018-12-11T00:19:26.781Z,70.67
2018-12-11T00:21:54.842Z,70.56
2018-12-11T00:24:22.885Z,69.04
2018-12-11T00:26:51.032Z,70.91
2018-12-11T00:29:19.255Z,70.10
2018-12-11T00:31:47.369Z,71.47
2018-12-11T00:34:15.433Z,67.58
2018-12-11T00:36:43.487Z,68.75
2018-12-11T00:39:11.611Z,69.51
2018-12-11T00:41:39.641Z,69.88
2018-12-11T00:44:07.723Z,68.53
2018-12-11T00:46:35.824Z,67.61
2018-12-11T00:49:03.943Z,65.12
2018-12-11T00:51:32.238Z,70.27
2018-12-11T00:54:00.275Z,72.26
2018-12-11T00:56:28.307Z,68.49
2018-12-11T00:58:56.370Z,68.61
2018-12-11T01:01:24.481Z,67.92
2018-12-11T01:03:52.902Z,67.14
2018-12-11T01:06:22.978Z,67.49
2018-12-11T01:08:51.134Z,67.03
2018-12-11T01:11:19.177Z,65.32
2018-12-11T01:13:47.232Z,64.51
2018-12-11T01:16:15.435Z,66.16
2018-12-11T01:18:43.538Z,68.99
2018-12-11T01:21:11.735Z,69.09
2018-12-11T01:23:39.786Z,68.37
2018-12-11T01:26:07.906Z,65.29
2018-12-11T01:28:36.136Z,64.63
2018-12-11T01:31:04.301Z,68.56
2018-12-11T01:33:32.352Z,68.91
2018-12-11T01:36:00.408Z,68.47
2018-12-11T01:38:28.443Z,66.36
2018-12-11T01:40:56.486Z,66.70
2018-12-11T01:43:24.525Z,66.43
2018-12-11T01:48:34.030Z,71.86
2018-12-11T01:51:02.179Z,69.79
2018-12-11T01:53:30.260Z,73.08
2018-12-11T01:55:58.398Z,70.89
2018-12-11T01:58:26.458Z,67.69
2018-12-11T02:00:54.535Z,67.16
2018-12-11T02:03:22.643Z,67.57
2018-12-11T02:05:50.758Z,70.39
2018-12-11T02:08:18.888Z,68.80
2018-12-11T02:10:47.105Z,68.09
2018-12-11T02:13:15.263Z,68.17
2018-12-11T02:15:43.810Z,70.35
2018-12-11T02:18:11.858Z,69.59
2018-12-11T02:20:39.969Z,68.59
2018-12-11T02:23:08.121Z,67.11
2018-12-11T02:25:36.246Z,68.31
2018-12-11T02:28:04.430Z,71.88
2018-12-11T02:30:32.537Z,67.08
2018-12-11T02:33:00.714Z,70.28
2018-12-11T02:35:28.805Z,67.60
2018-12-11T02:37:56.884Z,66.05
2018-12-11T02:40:25.001Z,68.06
2018-12-11T02:42:53.064Z,71.01
2018-12-11T02:45:21.106Z,69.93
2018-12-11T02:47:49.170Z,70.39
2018-12-11T02:50:17.298Z,69.68
2018-12-11T02:52:45.342Z,68.10
2018-12-11T02:55:13.492Z,70.00
2018-12-11T02:57:41.531Z,69.40
2018-12-11T03:00:09.974Z,70.11
2018-12-11T03:02:38.009Z,69.54
2018-12-11T03:05:06.354Z,68.52
2018-12-11T03:07:34.402Z,66.54
2018-12-11T03:10:02.439Z,68.03
2018-12-11T03:12:30.505Z,71.09
2018-12-11T03:14:58.623Z,70.62
2018-12-11T03:17:26.800Z,68.88
2018-12-11T03:19:54.853Z,69.17
2018-12-11T03:22:23.207Z,68.89
2018-12-11T03:24:51.260Z,70.09
2018-12-11T03:27:19.319Z,68.48
2018-12-11T03:29:47.447Z,68.69
2018-12-11T03:32:15.479Z,66.33
2018-12-11T03:34:43.677Z,67.06
2018-12-11T03:37:11.777Z,65.81
2018-12-11T03:39:39.842Z,66.20
2018-12-11T03:42:07.957Z,69.34
2018-12-11T03:44:36.226Z,71.56
2018-12-11T03:47:04.479Z,67.55
2018-12-11T03:49:32.553Z,69.17
2018-12-11T03:52:00.601Z,68.53
2018-12-11T03:54:28.665Z,69.85
2018-12-11T03:56:56.842Z,67.49
2018-12-11T03:59:24.900Z,67.75
2018-12-11T04:01:53.294Z,69.90
2018-12-11T04:04:21.334Z,69.85
2018-12-11T04:06:49.374Z,70.55
2018-12-11T04:09:17.487Z,67.75
2018-12-11T04:11:46.698Z,67.82
2018-12-11T04:14:14.814Z,66.70
2018-12-11T04:16:42.978Z,68.47
2018-12-11T04:19:11.151Z,70.47
2018-12-11T04:21:39.288Z,67.93
2018-12-11T04:24:07.555Z,69.72
2018-12-11T04:26:35.663Z,70.70
2018-12-11T04:29:03.841Z,67.95
2018-12-11T04:31:31.882Z,66.10
2018-12-11T04:33:59.937Z,64.88
2018-12-11T04:36:27.971Z,69.33
2018-12-11T04:38:56.089Z,69.61
2018-12-11T04:41:24.144Z,67.96
2018-12-11T04:43:52.207Z,68.46
2018-12-11T04:46:20.244Z,68.02
2018-12-11T04:48:48.306Z,66.48
2018-12-11T04:51:16.331Z,69.83
2018-12-11T04:53:44.385Z,66.59
2018-12-11T04:56:12.514Z,68.15
2018-12-11T04:58:40.566Z,66.30
2018-12-11T05:01:08.642Z,67.79
2018-12-11T05:03:36.731Z,67.81
2018-12-11T05:06:04.910Z,66.87
2018-12-11T05:08:32.970Z,65.91
2018-12-11T05:11:01.073Z,67.18
2018-12-11T05:13:29.125Z,69.21
2018-12-11T05:15:57.199Z,71.62
2018-12-11T05:18:25.348Z,68.83
2018-12-11T05:20:53.399Z,69.64
2018-12-11T05:23:21.521Z,68.85
2018-12-11T05:25:49.590Z,71.40
2018-12-11T05:28:17.723Z,70.58
2018-12-11T05:30:45.798Z,69.99
2018-12-11T05:33:13.862Z,68.31
2018-12-11T05:35:42.046Z,70.95
2018-12-11T05:38:10.082Z,67.98
2018-12-11T05:40:38.188Z,68.85
2018-12-11T05:43:06.241Z,69.29
2018-12-11T05:45:34.310Z,68.66
2018-12-11T05:48:02.356Z,70.29
2018-12-11T05:50:30.397Z,68.76
2018-12-11T05:52:58.539Z,68.27
2018-12-11T05:55:27.666Z,68.33
2018-12-11T05:57:55.837Z,69.03
2018-12-11T06:00:23.899Z,67.96
2018-12-11T06:02:52.013Z,67.79
2018-12-11T06:05:20.173Z,67.39
2018-12-11T06:07:48.222Z,68.89
2018-12-11T06:10:16.282Z,67.71
2018-12-11T06:12:44.394Z,68.29
2018-12-11T06:15:12.564Z,66.65
2018-12-11T06:17:40.622Z,69.23
2018-12-11T06:20:08.753Z,67.60
2018-12-11T06:22:37.393Z,66.81
2018-12-11T06:25:06.136Z,69.08
2018-12-11T06:27:34.817Z,68.17
2018-12-11T06:30:04.099Z,67.63
2018-12-11T06:32:32.762Z,68.43
2018-12-11T06:35:01.387Z,69.16
2018-12-11T06:37:30.084Z,68.30
2018-12-11T06:39:58.657Z,68.67
2018-12-11T06:42:27.314Z,69.57
2018-12-11T06:44:56.008Z,69.16
2018-12-11T06:47:24.656Z,68.51
2018-12-11T06:49:52.781Z,69.55
2018-12-11T06:52:20.891Z,67.74
2018-12-11T06:54:48.954Z,69.78
2018-12-11T06:57:16.999Z,68.28
2018-12-11T06:59:45.027Z,67.43
2018-12-11T07:02:13.116Z,67.98
2018-12-11T07:04:41.182Z,67.79
2018-12-11T07:07:09.811Z,66.81
2018-12-11T07:09:38.592Z,66.13
2018-12-11T07:12:06.677Z,68.26
2018-12-11T07:14:34.717Z,71.91
2018-12-11T07:17:02.751Z,68.12
2018-12-11T07:19:30.873Z,68.37
2018-12-11T07:21:59.979Z,67.51
2018-12-11T07:24:28.030Z,67.69
2018-12-11T07:26:56.092Z,66.27
2018-12-11T07:29:24.222Z,67.24
2018-12-11T07:31:52.277Z,67.81
2018-12-11T07:34:20.418Z,67.67
2018-12-11T07:36:48.491Z,66.87
2018-12-11T07:39:16.582Z,69.79
2018-12-11T07:41:44.718Z,69.16
2018-12-11T07:44:12.761Z,69.52
2018-12-11T07:46:40.827Z,69.91
2018-12-11T07:49:08.865Z,70.52
2018-12-11T07:51:36.919Z,69.17
2018-12-11T07:54:04.970Z,66.76
2018-12-11T07:56:33.023Z,68.26
2018-12-11T07:59:01.095Z,70.71
2018-12-11T08:01:29.137Z,68.77
2018-12-11T08:03:57.169Z,71.78
2018-12-11T08:06:25.221Z,68.99
2018-12-11T08:08:53.259Z,68.55
2018-12-11T08:11:21.405Z,69.82
2018-12-11T08:13:49.439Z,69.21
2018-12-11T08:16:18.222Z,68.67
2018-12-11T08:18:46.269Z,67.08
2018-12-11T08:21:14.322Z,68.46
2018-12-11T08:23:42.462Z,68.49
2018-12-11T08:26:10.532Z,66.50
2018-12-11T08:28:38.582Z,68.88
2018-12-11T08:31:06.725Z,67.90
2018-12-11T08:33:34.882Z,69.92
2018-12-11T08:36:02.940Z,71.15
2018-12-11T08:38:30.972Z,67.37
2018-12-11T08:40:59.013Z,68.68
2018-12-11T08:43:27.069Z,66.47
2018-12-11T08:45:55.114Z,66.22
2018-12-11T08:48:23.150Z,67.22
2018-12-11T08:50:51.191Z,67.03
2018-12-11T08:53:19.284Z,66.70
2018-12-11T08:55:47.333Z,67.01
2018-12-11T08:58:15.438Z,66.66
2018-12-11T09:00:43.558Z,65.85
2018-12-11T09:03:11.622Z,63.79
2018-12-11T09:05:39.725Z,66.40
2018-12-11T09:08:07.770Z,64.90
2018-12-11T09:10:35.890Z,69.14
2018-12-11T09:13:04.057Z,68.72
2018-12-11T09:15:32.153Z,67.56
2018-12-11T09:18:00.198Z,69.02
2018-12-11T09:20:28.243Z,69.03
2018-12-11T09:22:58.057Z,68.09
2018-12-11T09:25:26.108Z,67.20
2018-12-11T09:27:54.301Z,66.65
2018-12-11T09:30:22.341Z,67.82
2018-12-11T09:32:50.429Z,69.00
2018-12-11T09:35:18.482Z,68.77
2018-12-11T09:37:46.530Z,67.17
2018-12-11T09:40:14.658Z,66.94
2018-12-11T09:42:42.912Z,66.03
2018-12-11T09:45:10.958Z,66.02
2018-12-11T09:47:39.081Z,66.24
2018-12-11T09:50:07.295Z,67.06
2018-12-11T09:52:35.337Z,67.03
2018-12-11T09:55:03.518Z,68.70
2018-12-11T09:57:31.721Z,65.80
2018-12-11T09:59:59.786Z,66.88
2018-12-11T10:02:27.907Z,67.75
2018-12-11T10:04:55.971Z,65.91
2018-12-11T10:07:24.018Z,67.40
2018-12-11T10:09:52.136Z,65.73
2018-12-11T10:12:20.238Z,64.58
2018-12-11T10:14:48.397Z,64.38
2018-12-11T10:17:16.551Z,65.10
2018-12-11T10:19:44.587Z,66.80
2018-12-11T10:22:12.900Z,66.06
2018-12-11T10:24:40.955Z,67.03
2018-12-11T10:27:08.995Z,65.04
2018-12-11T10:29:37.040Z,67.41
2018-12-11T10:32:05.163Z,67.69
2018-12-11T10:34:33.270Z,67.61
2018-12-11T10:37:01.361Z,67.75
2018-12-11T10:39:29.480Z,67.26
2018-12-11T10:41:57.550Z,70.40
2018-12-11T10:44:25.594Z,69.71
2018-12-11T10:46:53.749Z,69.18
2018-12-11T10:49:21.899Z,68.03
2018-12-11T10:51:50.099Z,66.65
2018-12-11T10:54:18.161Z,67.38
2018-12-11T10:56:46.304Z,67.09
2018-12-11T10:59:14.457Z,66.17
2018-12-11T11:01:48.861Z,68.91
2018-12-11T11:04:17.194Z,69.33
2018-12-11T11:06:45.350Z,66.49
2018-12-11T11:09:13.399Z,64.95
2018-12-11T11:11:42.088Z,65.13
2018-12-11T11:14:10.345Z,66.55
2018-12-11T11:16:38.393Z,65.67
2018-12-11T11:19:06.476Z,65.33
2018-12-11T11:21:34.612Z,69.21
2018-12-11T11:24:02.724Z,68.45
2018-12-11T11:26:30.841Z,70.08
2018-12-11T11:28:58.916Z,68.69
2018-12-11T11:31:26.945Z,68.29
2018-12-11T11:33:57.005Z,66.23
2018-12-11T11:36:25.598Z,68.09
2018-12-11T11:38:53.646Z,67.86
2018-12-11T11:41:21.732Z,64.59
2018-12-11T11:43:49.892Z,66.87
2018-12-11T11:48:59.512Z,66.19
2018-12-11T11:51:27.604Z,64.45
2018-12-11T11:53:55.736Z,66.74
2018-12-11T11:56:23.807Z,68.08
2018-12-11T11:58:51.934Z,67.53
2018-12-11T12:01:20.004Z,67.65
2018-12-11T12:03:48.341Z,68.26
2018-12-11T12:06:16.453Z,65.50
2018-12-11T12:08:44.503Z,65.89
2018-12-11T12:11:12.610Z,65.72
2018-12-11T12:13:40.823Z,65.15
2018-12-11T12:16:08.899Z,65.80
2018-12-11T12:18:37.060Z,65.56
2018-12-11T12:21:05.208Z,65.65
2018-12-11T12:23:33.254Z,66.64
2018-12-11T12:26:01.268Z,67.37
2018-12-11T12:28:29.358Z,66.66
2018-12-11T12:30:59.217Z,66.74
2018-12-11T12:33:27.318Z,66.80
2018-12-11T12:35:55.356Z,66.45
2018-12-11T12:38:23.531Z,67.50
2018-12-11T12:40:51.647Z,66.84
2018-12-11T12:43:20.231Z,65.85
2018-12-11T12:45:48.581Z,65.65
2018-12-11T12:48:16.744Z,63.71
2018-12-11T12:50:44.778Z,65.08
2018-12-11T12:53:12.911Z,64.17
2018-12-11T12:55:40.938Z,62.84
2018-12-11T12:58:09.002Z,64.88
2018-12-11T13:00:37.077Z,63.25
2018-12-11T13:03:05.162Z,67.67
2018-12-11T13:05:33.194Z,68.63
2018-12-11T13:08:01.253Z,67.82
2018-12-11T13:10:29.305Z,66.09
2018-12-11T13:12:57.629Z,68.98
2018-12-11T13:15:25.737Z,67.11
2018-12-11T13:17:53.775Z,64.34
2018-12-11T13:20:21.934Z,64.55
2018-12-11T13:22:49.990Z,64.95
2018-12-11T13:25:18.063Z,64.52
2018-12-11T13:27:46.185Z,67.62
2018-12-11T13:30:14.245Z,66.29
2018-12-11T13:32:42.286Z,65.38
2018-12-11T13:35:10.410Z,67.50
2018-12-11T13:37:38.450Z,64.96
2018-12-11T13:40:06.821Z,66.12
2018-12-11T13:42:34.957Z,66.66
2018-12-11T13:45:03.313Z,68.23
2018-12-11T13:47:31.334Z,66.19
2018-12-11T13:49:59.396Z,65.92
2018-12-11T13:52:27.460Z,63.80
2018-12-11T13:54:55.507Z,65.57
2018-12-11T13:57:23.793Z,66.95
2018-12-11T13:59:51.831Z,65.24
2018-12-11T14:02:19.893Z,63.84
2018-12-11T14:04:47.998Z,64.57
2018-12-11T14:07:16.173Z,65.06
2018-12-11T14:09:44.220Z,67.43
2018-12-11T14:12:12.320Z,66.32
2018-12-11T14:14:40.469Z,64.63
2018-12-11T14:17:08.755Z,64.03
2018-12-11T14:19:36.890Z,64.04
2018-12-11T14:22:05.042Z,66.72
2018-12-11T14:24:33.168Z,67.33
2018-12-11T14:27:01.220Z,66.30
2018-12-11T14:29:29.359Z,66.19
2018-12-11T14:31:57.429Z,64.04
2018-12-11T14:34:25.542Z,65.95
2018-12-11T14:36:53.647Z,65.37
2018-12-11T14:39:21.689Z,65.66
2018-12-11T14:41:49.802Z,65.43
2018-12-11T14:44:17.905Z,65.24
2018-12-11T14:46:46.113Z,64.91
2018-12-11T14:49:14.266Z,65.30
2018-12-11T14:51:42.463Z,64.64
2018-12-11T14:54:10.737Z,65.83
2018-12-11T14:56:38.905Z,63.34
2018-12-11T14:59:07.113Z,65.77
2018-12-11T15:01:35.448Z,64.45
2018-12-11T15:04:03.573Z,66.26
2018-12-11T15:06:31.758Z,64.09
2018-12-11T15:09:05.237Z,63.73
2018-12-11T15:11:33.321Z,64.32
2018-12-11T15:14:01.404Z,65.90
2018-12-11T15:16:29.582Z,64.86
2018-12-11T15:18:57.732Z,65.78
2018-12-11T15:21:25.794Z,66.90
2018-12-11T15:23:53.884Z,65.64
2018-12-11T15:26:22.190Z,64.48
2018-12-11T15:28:50.241Z,65.15
2018-12-11T15:31:18.308Z,64.52
2018-12-11T15:33:46.393Z,64.48
2018-12-11T15:36:14.553Z,62.64
2018-12-11T15:38:42.640Z,64.78
2018-12-11T15:41:10.807Z,66.96
2018-12-11T15:43:39.173Z,65.59
2018-12-11T15:46:07.218Z,65.31
2018-12-11T15:48:35.362Z,64.00
2018-12-11T15:51:03.433Z,65.25
2018-12-11T15:53:31.555Z,63.91
2018-12-11T15:55:59.604Z,64.32
2018-12-11T15:58:27.629Z,64.20
2018-12-11T16:00:55.757Z,62.66
2018-12-11T16:03:23.867Z,65.87
2018-12-11T16:05:51.941Z,64.27
2018-12-11T16:08:20.055Z,64.81
2018-12-11T16:10:49.102Z,63.47
2018-12-11T16:13:17.230Z,63.17
2018-12-11T16:15:45.402Z,63.09
2018-12-11T16:18:13.485Z,68.44
2018-12-11T16:20:41.700Z,64.15
2018-12-11T16:23:09.764Z,64.20
2018-12-11T16:25:37.863Z,63.17
2018-12-11T16:28:06.017Z,64.97
2018-12-11T16:30:34.100Z,63.42
2018-12-11T16:33:02.318Z,64.24
2018-12-11T16:35:30.471Z,64.92
2018-12-11T16:37:59.075Z,64.57
2018-12-11T16:40:27.146Z,65.45
2018-12-11T16:42:55.753Z,63.74
2018-12-11T16:45:23.869Z,66.18
2018-12-11T16:47:51.962Z,65.11
2018-12-11T16:50:20.048Z,64.19
2018-12-11T16:52:48.112Z,65.01
2018-12-11T16:55:16.718Z,66.68
2018-12-11T16:57:44.912Z,65.72
2018-12-11T17:00:13.951Z,63.35
2018-12-11T17:02:42.275Z,63.04
2018-12-11T17:05:10.544Z,65.08
2018-12-11T17:07:38.710Z,66.53
2018-12-11T17:10:07.381Z,64.12
2018-12-11T17:12:35.436Z,64.81
2018-12-11T17:15:04.170Z,63.75
2018-12-11T17:17:32.392Z,65.08
2018-12-11T17:20:00.536Z,64.24
2018-12-11T17:22:28.673Z,63.32
2018-12-11T17:24:56.994Z,63.47
2018-12-11T17:27:25.249Z,64.08
2018-12-11T17:29:53.450Z,68.77
2018-12-11T17:32:21.489Z,66.09
2018-12-11T17:34:49.667Z,65.35
2018-12-11T17:37:17.889Z,67.85
2018-12-11T17:39:46.145Z,66.75
2018-12-11T17:42:15.347Z,66.61
2018-12-11T17:44:43.447Z,66.30
2018-12-11T17:47:11.523Z,64.70
2018-12-11T17:49:39.599Z,64.50
2018-12-11T17:52:11.302Z,65.35
2018-12-11T17:54:39.338Z,65.68
2018-12-11T17:57:07.382Z,65.02
2018-12-11T17:59:35.454Z,67.02
2018-12-11T18:02:06.148Z,67.06
2018-12-11T18:04:34.207Z,65.16
2018-12-11T18:07:02.332Z,66.01
2018-12-11T18:09:30.663Z,64.65
2018-12-11T18:11:59.113Z,65.90
2018-12-11T18:14:27.160Z,66.48
2018-12-11T18:16:55.230Z,66.97
2018-12-11T18:19:23.446Z,66.53
2018-12-11T18:21:51.559Z,66.26
2018-12-11T18:24:20.210Z,67.02
2018-12-11T18:26:48.286Z,67.60
2018-12-11T18:29:16.352Z,68.51
2018-12-11T18:31:44.453Z,67.64
2018-12-11T18:34:12.553Z,69.52
2018-12-11T18:36:40.686Z,69.66
2018-12-11T18:39:09.138Z,69.59
2018-12-11T18:41:37.203Z,69.02
2018-12-11T18:44:05.248Z,68.72
2018-12-11T18:46:33.362Z,67.04
2018-12-11T18:49:01.456Z,66.53
2018-12-11T18:54:06.777Z,65.41
2018-12-11T18:56:34.838Z,66.20
2018-12-11T18:59:03.115Z,66.53
2018-12-11T19:01:31.145Z,66.55
2018-12-11T19:03:59.197Z,65.34
2018-12-11T19:06:27.485Z,67.99
2018-12-11T19:08:55.644Z,66.51
2018-12-11T19:11:23.677Z,67.19
2018-12-11T19:13:51.714Z,67.94
2018-12-11T19:16:19.755Z,70.01
2018-12-11T19:18:47.815Z,68.38
2018-12-11T19:21:16.870Z,68.81
2018-12-11T19:23:53.237Z,68.65
2018-12-11T19:26:21.639Z,67.62
2018-12-11T19:28:49.746Z,68.63
2018-12-11T19:31:17.980Z,66.26
2018-12-11T19:33:46.006Z,66.51
2018-12-11T19:36:14.157Z,69.59
2018-12-11T19:38:42.218Z,65.46
2018-12-11T19:41:10.302Z,65.40
2018-12-11T19:43:38.400Z,65.76
2018-12-11T19:46:06.531Z,66.16
2018-12-11T19:48:34.575Z,67.11
2018-12-11T19:51:02.628Z,68.88
2018-12-11T19:53:30.758Z,66.76
2018-12-11T19:55:58.822Z,66.68
2018-12-11T19:58:26.893Z,65.66
2018-12-11T20:00:54.926Z,64.65
2018-12-11T20:03:23.213Z,64.22
2018-12-11T20:05:51.351Z,65.04
2018-12-11T20:08:19.432Z,66.01
2018-12-11T20:10:52.746Z,62.90
2018-12-11T20:13:20.959Z,62.39
2018-12-11T20:15:49.470Z,64.60
2018-12-11T20:18:17.583Z,65.69
2018-12-11T20:20:45.689Z,65.94
2018-12-11T20:23:13.819Z,64.24
2018-12-11T20:25:42.851Z,65.52
2018-12-11T20:28:11.020Z,64.54
2018-12-11T20:30:39.153Z,65.96
2018-12-11T20:33:07.201Z,65.78
2018-12-11T20:35:35.308Z,63.65
2018-12-11T20:38:03.804Z,64.56
2018-12-11T20:40:31.884Z,65.96
2018-12-11T20:43:00.448Z,64.01
2018-12-11T20:45:28.617Z,64.29
2018-12-11T20:47:56.667Z,63.30
2018-12-11T20:50:24.794Z,63.37
2018-12-11T20:52:52.898Z,64.62
2018-12-11T20:55:21.025Z,63.19
2018-12-11T20:57:49.048Z,63.63
2018-12-11T21:00:17.089Z,64.43
2018-12-11T21:02:45.169Z,63.00
2018-12-11T21:05:13.235Z,63.51
2018-12-11T21:07:41.464Z,65.33
2018-12-11T21:10:11.483Z,65.37
2018-12-11T21:12:39.617Z,65.34
2018-12-11T21:15:08.285Z,64.88
2018-12-11T21:17:36.455Z,64.45
2018-12-11T21:20:05.038Z,63.31
2018-12-11T21:22:33.097Z,64.76
2018-12-11T21:25:01.166Z,62.57
2018-12-11T21:27:29.490Z,62.74
2018-12-11T21:29:57.534Z,65.08
2018-12-11T21:32:25.665Z,64.19
2018-12-11T21:34:53.719Z,66.51
2018-12-11T21:37:21.769Z,62.79
2018-12-11T21:39:49.933Z,65.04
2018-12-11T21:42:18.081Z,64.15
2018-12-11T21:44:46.187Z,65.41
2018-12-11T21:47:14.253Z,68.45
2018-12-11T21:49:42.271Z,67.01
2018-12-11T21:52:10.363Z,68.17
2018-12-11T21:54:38.453Z,67.72
2018-12-11T21:57:06.573Z,67.55
2018-12-11T21:59:34.605Z,66.10
2018-12-11T22:02:02.740Z,68.47
2018-12-11T22:04:30.782Z,67.61
2018-12-11T22:06:58.841Z,68.71
2018-12-11T22:09:26.875Z,68.04
2018-12-11T22:11:54.960Z,67.10
2018-12-11T22:14:23.017Z,65.78
2018-12-11T22:16:51.090Z,65.01
2018-12-11T22:19:19.129Z,67.16
2018-12-11T22:21:47.196Z,67.44
2018-12-11T22:24:15.298Z,66.05
2018-12-11T22:26:43.378Z,66.84
2018-12-11T22:29:11.412Z,64.75
2018-12-11T22:31:39.468Z,62.79
2018-12-11T22:34:07.502Z,64.85
2018-12-11T22:36:35.578Z,64.37
2018-12-11T22:39:06.336Z,64.62
2018-12-11T22:41:34.381Z,62.50
2018-12-11T22:44:02.466Z,65.89
2018-12-11T22:46:30.575Z,63.04
2018-12-11T22:48:58.612Z,62.57
2018-12-11T22:51:27.160Z,62.23
2018-12-11T22:53:55.275Z,64.25
2018-12-11T22:56:23.316Z,62.65
2018-12-11T22:58:51.354Z,62.75
2018-12-11T23:01:19.949Z,64.22
2018-12-11T23:03:48.645Z,63.30
2018-12-11T23:06:16.779Z,61.81
2018-12-11T23:08:44.827Z,62.40
2018-12-11T23:11:12.906Z,61.78
2018-12-11T23:13:40.988Z,62.35
2018-12-11T23:16:09.076Z,60.88
2018-12-11T23:18:37.096Z,61.16
2018-12-11T23:21:08.293Z,64.46
2018-12-11T23:23:51.243Z,64.88
2018-12-11T23:26:19.345Z,64.76
2018-12-11T23:28:47.486Z,64.22
2018-12-11T23:31:15.635Z,61.94
2018-12-11T23:33:43.682Z,62.46
2018-12-11T23:36:11.761Z,61.74
2018-12-11T23:38:39.810Z,61.73
2018-12-11T23:41:07.974Z,61.86
2018-12-11T23:43:36.010Z,63.46
2018-12-11T23:46:05.134Z,62.85
2018-12-11T23:48:33.271Z,64.00
2018-12-11T23:51:01.369Z,66.53
2018-12-11T23:53:29.410Z,64.59
2018-12-11T23:55:57.486Z,65.68
2018-12-11T23:58:25.613Z,65.52
